เทศบาลนครเชียงใหม่, ประเทศไทย

01:49 PM ICT วัน มกราคม 17, 2017 (GMT +0700)
Chiang Mai International | | Change Station

Elev 1030 ft 18.78 °N, 98.98 °E | Updated 19 minutes ago

Partly Cloudy
มีเมฆคลุมเป็นส่วนๆ
84 ฟาเรนไฮน์
Feels Like 84 ฟาเรนไฮน์
N
6
ลม ความผันแปร ลม from ทางทิศใต้และทิศตะวันออกเฉียงใต้

วันนี้
High -- | Low -- ฟาเรนไฮน์
--% Chance of Precip.
Yesterday
High -- | Low -- ฟาเรนไฮน์
Precip. -- นิ้ว
ความดัน 29.98 นิ้ว
ทัศนวิสัย 6.2 ไมล์
เมฆ Few 4000 ft
ดัชนีความร้อน 84 ฟาเรนไฮน์
อุณหภูมิที่อากาศอาจจับตัวเป็นหยาดน้ำค้าง 57 ฟาเรนไฮน์
ความชื้น 40%
Rainfall 0.00 นิ้ว
Snow Depth Not available.
6:59 AM 6:08 PM
ข้างแรม, 75% visible
METAR VTCC 170630Z 16005KT 9999 FEW040 29/14 Q1015 A2998 NOSIG
ความดัน 29.98 นิ้ว
ทัศนวิสัย 6.2 ไมล์
เมฆ Few 4000 ft
ดัชนีความร้อน 84 ฟาเรนไฮน์
อุณหภูมิที่อากาศอาจจับตัวเป็นหยาดน้ำค้าง 57 ฟาเรนไฮน์
ความชื้น 40%
Rainfall 0.00 นิ้ว
Snow Depth Not available.
6:59 AM 6:08 PM
ข้างแรม, 75% visible
METAR VTCC 170630Z 16005KT 9999 FEW040 29/14 Q1015 A2998 NOSIG

Get Your Daily Forecast Email!

Thanks for signing up!

Be on the lookout for a verification email in your inbox.

You'll start receiving the daily forecast at 8 AM.

×

10-Day Weather Forecast

No radar image for this location.
×

Almanac

ดาราศาสตร์

Jan. 17, 2017 Rise Set
Actual Time
Civil Twilight
Nautical Twilight
Astronomical Twilight
Moon
Length Of Visible Light
ความยาวของวัน
Tomorrow will be .
, % of the Moon is Illuminated

Today's Extremes

Country Highs Country Lows

Community

WunderPhotos

Upload Photos

1,962,540 photos uploaded!

WunderBlog® & News

Nearby

Air Quality

  Air Quality AQ Index Pollutant
Not available.

Snow Depth

Station Depth Elevation

Earthquake Activity

City Distance Mag. Time & Date
Minimum magnitude displayed is 2.5.

Coastal Water Temperatures

สถานที่ อุณหภูมิ

Stations

Nearby Weather Stations

Station Location Temp ลมหนาว อุณหภูมิที่อากาศอาจจับตัวเป็นหยาดน้ำค้าง ความชื้น ลม Precip. Elev ปรับปรุงล่าสุด Type